Airfield :
LOGIN :

Register | Disclaimer

   EN    FR    IT 

 










Legend :    VFR   Marginal VFR   IFR   Intensive IFR   Very Intensive IFR
Visi :
Ceiling :
>= 8 km
>= 3000ft
5 to 8 km
1000 to 3000 ft
1500m to 5 km
500 to 1000 ft
800 to 1500m
200 to 500 ft
< 800m
< 200 ft
Symbols :   Thunderstorms  Fog  Heavy snow  Heavy precipitations  Wind > 20 kt
SIGMETs :     Misc.  Thunderstorms  Icing  Turbulence  Mountain Waves  Volcanic Ashes






- Airport Elevation : 474 ft
- IATA code : HFS


ESOH - Hagfors

CURRENT METAR :
  • 290750Z AUTO 05004KT 9999 FEW011/// SCT019/// OVC033/// 02/01 Q1028

EXPIRED METARs :
  • 290720Z AUTO 05004KT 020V080 9999 OVC013/// 02/01 Q1028 REUP
  • 290650Z AUTO 05004KT 020V080 9999 BKN010/// OVC035/// 02/01 Q1028 REUP
  • 290620Z 07004KT 360V100 9999 OVC008 02/01 Q1027
  • 290550Z 06003KT 360V110 9999 BKN008 OVC010 02/01 Q1027

TAF N/A



MET'MAP, your aeronautical weather chart ! - Copyright ORBIFLY December 2007 - Disclaimer

ORBIFLY MET'MAP TEAM :

Programming & Development : Alexandra Zaïnal
Original concept : Baudouin d'Aumeries
Technical & hardware support : Manuel Goepfert
Assistance : Marc-Olivier Méhu




SOURCES & CREDITS :

   NOAA